createdAt,value
2023-01-08T00:00:48.603Z,7.18
2023-01-08T00:03:15.975Z,7.45
2023-01-08T00:05:43.287Z,7.22
2023-01-08T00:08:10.923Z,8.10
2023-01-08T00:10:38.772Z,7.20
2023-01-08T00:13:06.808Z,8.52
2023-01-08T00:15:34.857Z,9.38
2023-01-08T00:18:02.165Z,7.90
2023-01-08T00:20:29.800Z,7.88
2023-01-08T00:22:56.927Z,7.25
2023-01-08T00:25:24.060Z,7.90
2023-01-08T00:27:51.395Z,7.45
2023-01-08T00:30:18.575Z,14.50
2023-01-08T00:32:45.724Z,10.40
2023-01-08T00:35:12.900Z,6.68
2023-01-08T00:37:40.100Z,6.65
2023-01-08T00:40:07.763Z,6.57
2023-01-08T00:42:35.024Z,5.32
2023-01-08T00:45:02.292Z,6.13
2023-01-08T00:47:29.436Z,5.55
2023-01-08T00:49:56.762Z,5.25
2023-01-08T00:52:23.946Z,7.72
2023-01-08T00:54:51.533Z,10.68
2023-01-08T00:57:19.463Z,7.88
2023-01-08T00:59:46.749Z,12.32
2023-01-08T01:02:14.042Z,8.57
2023-01-08T01:04:41.387Z,5.75
2023-01-08T01:07:08.685Z,5.25
2023-01-08T01:09:35.867Z,5.50
2023-01-08T01:12:03.133Z,5.03
2023-01-08T01:14:30.288Z,5.20
2023-01-08T01:16:57.526Z,5.00
2023-01-08T01:19:24.739Z,6.25
2023-01-08T01:21:52.004Z,6.97
2023-01-08T01:24:19.406Z,8.85
2023-01-08T01:26:46.758Z,7.32
2023-01-08T01:29:13.896Z,7.00
2023-01-08T01:31:41.051Z,8.48
2023-01-08T01:34:08.177Z,9.73
2023-01-08T01:36:35.391Z,9.30
2023-01-08T01:39:02.578Z,9.15
2023-01-08T01:41:31.703Z,6.97
2023-01-08T01:44:18.847Z,4.97
2023-01-08T01:46:46.036Z,5.05
2023-01-08T01:49:16.275Z,5.15
2023-01-08T01:51:46.154Z,4.53
2023-01-08T01:54:13.817Z,5.03
2023-01-08T01:56:41.576Z,5.13
2023-01-08T01:59:08.855Z,5.30
2023-01-08T02:01:36.586Z,5.00
2023-01-08T02:04:03.922Z,4.75
2023-01-08T02:06:39.137Z,5.00
2023-01-08T02:09:09.350Z,5.07
2023-01-08T02:11:48.080Z,4.90
2023-01-08T02:14:23.669Z,5.05
2023-01-08T02:16:54.086Z,5.07
2023-01-08T02:19:27.559Z,4.63
2023-01-08T02:22:13.633Z,4.45
2023-01-08T02:24:43.845Z,4.60
2023-01-08T02:27:12.464Z,4.45
2023-01-08T02:29:40.202Z,5.05
2023-01-08T02:32:07.775Z,5.05
2023-01-08T02:34:34.933Z,4.85
2023-01-08T02:37:02.489Z,4.63
2023-01-08T02:39:32.666Z,4.57
2023-01-08T02:42:06.208Z,4.50
2023-01-08T02:44:42.890Z,4.82
2023-01-08T02:47:17.458Z,4.35
2023-01-08T02:49:46.562Z,4.40
2023-01-08T02:52:14.404Z,4.57
2023-01-08T02:54:42.063Z,4.57
2023-01-08T02:57:12.145Z,5.32
2023-01-08T02:59:40.592Z,5.35
2023-01-08T03:02:09.052Z,4.80
2023-01-08T03:04:39.058Z,4.40
2023-01-08T03:07:06.298Z,4.50
2023-01-08T03:09:33.674Z,4.22
2023-01-08T03:12:12.612Z,4.10
2023-01-08T03:14:53.346Z,3.88
2023-01-08T03:17:20.586Z,3.72
2023-01-08T03:19:54.762Z,3.50
2023-01-08T03:22:23.206Z,3.17
2023-01-08T03:24:51.889Z,3.78
2023-01-08T03:27:22.211Z,2.88
2023-01-08T03:29:50.845Z,3.00
2023-01-08T03:32:19.559Z,2.63
2023-01-08T03:34:48.077Z,2.97
2023-01-08T03:37:16.342Z,2.42
2023-01-08T03:40:05.257Z,2.28
2023-01-08T03:42:36.554Z,2.45
2023-01-08T03:45:05.902Z,2.25
2023-01-08T03:47:33.987Z,2.10
2023-01-08T03:50:02.226Z,2.20
2023-01-08T03:52:31.023Z,2.13
2023-01-08T03:54:58.774Z,2.10
2023-01-08T03:57:26.088Z,2.25
2023-01-08T03:59:54.819Z,2.20
2023-01-08T04:02:22.433Z,2.33
2023-01-08T04:04:49.862Z,2.05
2023-01-08T04:07:17.138Z,2.30
2023-01-08T04:09:44.343Z,2.30
2023-01-08T04:12:11.788Z,2.00
2023-01-08T04:14:39.026Z,2.25
2023-01-08T04:17:06.789Z,2.00
2023-01-08T04:19:34.126Z,2.20
2023-01-08T04:22:01.726Z,1.83
2023-01-08T04:24:29.829Z,2.45
2023-01-08T04:26:57.329Z,1.90
2023-01-08T04:29:25.139Z,2.38
2023-01-08T04:31:52.555Z,2.30
2023-01-08T04:34:19.912Z,2.35
2023-01-08T04:36:47.123Z,2.50
2023-01-08T04:39:14.321Z,2.40
2023-01-08T04:41:42.197Z,1.98
2023-01-08T04:44:10.105Z,1.92
2023-01-08T04:46:39.292Z,2.55
2023-01-08T04:49:06.594Z,2.33
2023-01-08T04:51:33.901Z,2.22
2023-01-08T04:54:01.164Z,2.30
2023-01-08T04:56:28.494Z,2.10
2023-01-08T04:58:55.928Z,2.25
2023-01-08T05:01:24.489Z,2.65
2023-01-08T05:03:56.009Z,2.40
2023-01-08T05:06:23.755Z,2.50
2023-01-08T05:08:51.414Z,2.20
2023-01-08T05:11:18.773Z,2.28
2023-01-08T05:13:49.089Z,2.00
2023-01-08T05:16:17.055Z,2.08
2023-01-08T05:18:46.019Z,2.10
2023-01-08T05:21:14.010Z,2.05
2023-01-08T05:23:42.107Z,2.03
2023-01-08T05:26:09.655Z,1.90
2023-01-08T05:28:37.514Z,1.98
2023-01-08T05:31:05.524Z,1.88
2023-01-08T05:33:33.014Z,1.80
2023-01-08T05:36:00.532Z,2.33
2023-01-08T05:38:27.753Z,2.40
2023-01-08T05:40:55.218Z,2.60
2023-01-08T05:43:22.813Z,2.67
2023-01-08T05:45:50.040Z,2.60
2023-01-08T05:48:17.587Z,2.70
2023-01-08T05:50:45.172Z,2.28
2023-01-08T05:53:13.121Z,2.60
2023-01-08T05:55:41.922Z,2.70
2023-01-08T05:58:11.632Z,2.38
2023-01-08T06:00:39.528Z,2.28
2023-01-08T06:03:07.723Z,2.63
2023-01-08T06:05:35.592Z,2.15
2023-01-08T06:08:02.983Z,2.83
2023-01-08T06:10:30.331Z,2.90
2023-01-08T06:12:57.694Z,2.90
2023-01-08T06:15:24.840Z,2.90
2023-01-08T06:17:52.076Z,2.80
2023-01-08T06:20:19.357Z,2.83
2023-01-08T06:22:46.530Z,2.50
2023-01-08T06:25:13.711Z,3.20
2023-01-08T06:27:41.930Z,2.78
2023-01-08T06:30:10.184Z,2.85
2023-01-08T06:32:39.903Z,2.70
2023-01-08T06:35:07.341Z,3.03
2023-01-08T06:37:34.489Z,2.60
2023-01-08T06:40:01.653Z,8.18
2023-01-08T06:42:28.875Z,2.58
2023-01-08T06:44:56.716Z,2.00
2023-01-08T06:47:24.163Z,2.15
2023-01-08T06:49:51.404Z,2.25
2023-01-08T06:52:18.691Z,1.75
2023-01-08T06:54:47.892Z,1.80
2023-01-08T06:57:15.441Z,1.50
2023-01-08T06:59:42.835Z,1.92
2023-01-08T07:02:15.129Z,1.48
2023-01-08T07:04:42.501Z,1.48
2023-01-08T07:07:12.055Z,1.30
2023-01-08T07:09:39.491Z,1.23
2023-01-08T07:12:07.629Z,1.75
2023-01-08T07:14:34.763Z,16.77
2023-01-08T07:17:02.135Z,19.50
2023-01-08T07:19:29.304Z,2.95
2023-01-08T07:21:56.830Z,8.95
2023-01-08T07:24:24.313Z,4.50
2023-01-08T07:26:51.542Z,2.95
2023-01-08T07:29:19.005Z,8.43
2023-01-08T07:31:46.453Z,4.13
2023-01-08T07:34:15.260Z,12.38
2023-01-08T07:36:42.796Z,3.60
2023-01-08T07:39:09.943Z,20.13
2023-01-08T07:41:37.163Z,4.88
2023-01-08T07:44:04.356Z,2.50
2023-01-08T07:46:32.110Z,2.45
2023-01-08T07:48:59.422Z,2.40
2023-01-08T07:51:26.858Z,2.20
2023-01-08T07:53:56.200Z,2.50
2023-01-08T07:56:23.909Z,12.40
2023-01-08T07:58:51.439Z,11.55
2023-01-08T08:01:18.950Z,3.58
2023-01-08T08:03:46.280Z,5.10
2023-01-08T08:06:13.466Z,2.80
2023-01-08T08:08:42.203Z,2.80
2023-01-08T08:11:09.640Z,3.45
2023-01-08T08:13:36.867Z,3.28
2023-01-08T08:16:05.097Z,3.10
2023-01-08T08:18:32.520Z,3.40
2023-01-08T08:20:59.767Z,4.68
2023-01-08T08:23:27.027Z,9.48
2023-01-08T08:25:54.254Z,8.57
2023-01-08T08:28:21.683Z,3.88
2023-01-08T08:30:48.826Z,5.75
2023-01-08T08:33:16.134Z,11.57
2023-01-08T08:35:49.751Z,8.20
2023-01-08T08:38:16.966Z,11.30
2023-01-08T08:40:44.285Z,5.25
2023-01-08T08:43:11.473Z,5.57
2023-01-08T08:45:38.754Z,3.63
2023-01-08T08:48:06.682Z,4.22
2023-01-08T08:50:33.950Z,4.60
2023-01-08T08:53:01.645Z,6.47
2023-01-08T08:55:29.238Z,3.60
2023-01-08T08:58:02.785Z,4.47
2023-01-08T09:00:29.987Z,6.22
2023-01-08T09:02:57.341Z,8.82
2023-01-08T09:05:24.666Z,6.55
2023-01-08T09:07:51.984Z,8.13
2023-01-08T09:10:19.219Z,5.95
2023-01-08T09:12:46.380Z,4.63
2023-01-08T09:15:13.610Z,2.40
2023-01-08T09:17:40.771Z,4.28
2023-01-08T09:20:08.235Z,2.75
2023-01-08T09:22:35.522Z,2.72
2023-01-08T09:25:02.651Z,1.90
2023-01-08T09:27:29.848Z,2.60
2023-01-08T09:29:57.138Z,2.80
2023-01-08T09:32:24.305Z,4.40
2023-01-08T09:34:51.450Z,2.55
2023-01-08T09:37:18.614Z,3.33
2023-01-08T09:39:50.988Z,1.88
2023-01-08T09:42:22.973Z,6.25
2023-01-08T09:44:52.786Z,3.35
2023-01-08T09:47:25.993Z,2.63
2023-01-08T09:49:54.769Z,2.30
2023-01-08T09:52:22.212Z,2.72
2023-01-08T09:54:49.394Z,3.22
2023-01-08T09:57:20.966Z,2.30
2023-01-08T09:59:48.662Z,3.83
2023-01-08T10:02:17.663Z,4.93
2023-01-08T10:04:45.576Z,2.20
2023-01-08T10:07:21.372Z,2.22
2023-01-08T10:09:51.857Z,2.25
2023-01-08T10:12:26.625Z,2.35
2023-01-08T10:14:54.791Z,2.72
2023-01-08T10:17:25.470Z,5.45
2023-01-08T10:19:52.819Z,5.18
2023-01-08T10:22:22.341Z,4.43
2023-01-08T10:24:49.592Z,2.80
2023-01-08T10:27:21.132Z,4.05
2023-01-08T10:29:50.291Z,3.30
2023-01-08T10:32:29.901Z,4.82
2023-01-08T10:34:58.673Z,3.67
2023-01-08T10:37:28.801Z,8.25
2023-01-08T10:40:01.702Z,11.90
2023-01-08T10:42:28.933Z,16.35
2023-01-08T10:44:56.103Z,2.63
2023-01-08T10:47:24.178Z,28.45
2023-01-08T10:49:51.421Z,5.00
2023-01-08T10:52:26.331Z,4.03
2023-01-08T10:54:53.588Z,6.32
2023-01-08T10:57:32.726Z,6.53
2023-01-08T11:00:00.175Z,7.22
2023-01-08T11:02:27.466Z,8.73
2023-01-08T11:04:54.808Z,8.13
2023-01-08T11:07:23.509Z,11.57
2023-01-08T11:09:52.202Z,11.10
2023-01-08T11:12:40.540Z,17.08
2023-01-08T11:15:29.528Z,8.93
2023-01-08T11:18:05.047Z,4.78
2023-01-08T11:20:32.458Z,4.00
2023-01-08T11:23:26.625Z,3.90
2023-01-08T11:25:53.824Z,3.13
2023-01-08T11:28:24.774Z,6.20
2023-01-08T11:30:56.276Z,2.70
2023-01-08T11:33:25.949Z,2.85
2023-01-08T11:36:03.946Z,2.28
2023-01-08T11:38:31.103Z,1.85
2023-01-08T11:41:04.251Z,1.77
2023-01-08T11:43:47.405Z,1.95
2023-01-08T11:46:20.744Z,1.45
2023-01-08T11:49:06.392Z,1.90
2023-01-08T11:51:33.846Z,1.40
2023-01-08T11:54:01.024Z,1.30
2023-01-08T11:56:34.447Z,1.38
2023-01-08T11:59:16.960Z,1.60
2023-01-08T12:01:44.273Z,1.70
2023-01-08T12:04:22.867Z,1.60
2023-01-08T12:06:50.207Z,1.30
2023-01-08T12:09:40.996Z,1.70
2023-01-08T12:12:08.752Z,1.92
2023-01-08T12:14:42.937Z,2.30
2023-01-08T12:17:22.083Z,2.97
2023-01-08T12:20:16.679Z,2.60
2023-01-08T12:25:23.311Z,1.95
2023-01-08T12:27:59.788Z,1.63
2023-01-08T12:30:37.251Z,1.63
2023-01-08T12:33:26.826Z,1.52
2023-01-08T12:35:55.831Z,1.80
2023-01-08T12:38:47.077Z,2.38
2023-01-08T12:41:16.023Z,1.60
2023-01-08T12:43:43.325Z,2.03
2023-01-08T12:46:13.265Z,2.00
2023-01-08T12:48:40.884Z,3.22
2023-01-08T12:51:23.481Z,2.45
2023-01-08T12:54:02.867Z,2.20
2023-01-08T12:56:38.704Z,2.42
2023-01-08T12:59:05.962Z,3.25
2023-01-08T13:01:33.341Z,1.90
2023-01-08T13:04:01.015Z,2.22
2023-01-08T13:06:28.632Z,1.90
2023-01-08T13:08:57.088Z,1.58
2023-01-08T13:11:29.771Z,1.35
2023-01-08T13:14:07.573Z,1.90
2023-01-08T13:16:42.494Z,2.58
2023-01-08T13:19:24.411Z,1.77
2023-01-08T13:21:53.431Z,1.50
2023-01-08T13:24:31.942Z,1.90
2023-01-08T13:27:10.819Z,1.60
2023-01-08T13:29:38.882Z,1.90
2023-01-08T13:32:23.332Z,2.75
2023-01-08T13:35:01.398Z,2.53
2023-01-08T13:37:29.064Z,1.83
2023-01-08T13:39:57.825Z,1.88
2023-01-08T13:42:28.735Z,2.65
2023-01-08T13:45:00.368Z,2.85
2023-01-08T13:47:27.668Z,2.20
2023-01-08T13:49:55.806Z,3.00
2023-01-08T13:52:32.256Z,2.22
2023-01-08T13:55:00.976Z,2.10
2023-01-08T13:57:32.212Z,2.00
2023-01-08T13:59:59.830Z,2.40
2023-01-08T14:02:31.766Z,4.10
2023-01-08T14:05:00.375Z,8.82
2023-01-08T14:07:28.274Z,3.20
2023-01-08T14:10:06.413Z,6.38
2023-01-08T14:12:35.287Z,10.02
2023-01-08T14:15:04.456Z,3.70
2023-01-08T14:17:32.750Z,7.25
2023-01-08T14:20:00.494Z,5.22
2023-01-08T14:22:32.389Z,7.80
2023-01-08T14:25:02.827Z,4.03
2023-01-08T14:27:31.474Z,3.10
2023-01-08T14:30:00.053Z,1.77
2023-01-08T14:32:29.387Z,2.28
2023-01-08T14:34:58.175Z,2.35
2023-01-08T14:37:25.755Z,3.92
2023-01-08T14:39:54.919Z,6.53
2023-01-08T14:42:41.127Z,14.07
2023-01-08T14:45:11.369Z,7.15
2023-01-08T14:47:40.583Z,4.68
2023-01-08T14:50:08.277Z,6.93
2023-01-08T14:52:35.761Z,6.85
2023-01-08T14:55:03.809Z,2.97
2023-01-08T14:57:31.757Z,2.95
2023-01-08T15:00:00.584Z,6.20
2023-01-08T15:02:37.637Z,5.05
2023-01-08T15:05:14.343Z,6.50
2023-01-08T15:07:55.034Z,4.15
2023-01-08T15:10:42.044Z,4.65
2023-01-08T15:13:22.869Z,4.32
2023-01-08T15:15:55.552Z,5.38
2023-01-08T15:18:22.997Z,7.80
2023-01-08T15:20:50.789Z,6.93
2023-01-08T15:23:24.569Z,4.80
2023-01-08T15:25:52.530Z,4.40
2023-01-08T15:28:21.905Z,4.30
2023-01-08T15:30:49.338Z,3.42
2023-01-08T15:33:21.274Z,3.15
2023-01-08T15:35:48.693Z,3.33
2023-01-08T15:38:16.358Z,2.95
2023-01-08T15:40:44.757Z,2.10
2023-01-08T15:43:13.845Z,2.10
2023-01-08T15:45:45.822Z,2.30
2023-01-08T15:48:13.170Z,2.60
2023-01-08T15:50:41.475Z,2.40
2023-01-08T15:53:13.322Z,1.95
2023-01-08T15:55:43.692Z,2.13
2023-01-08T15:58:12.553Z,2.15
2023-01-08T16:00:40.776Z,2.35
2023-01-08T16:03:08.190Z,2.28
2023-01-08T16:05:36.681Z,2.55
2023-01-08T16:08:04.712Z,2.17
2023-01-08T16:10:32.421Z,2.30
2023-01-08T16:13:00.837Z,2.92
2023-01-08T16:15:28.944Z,3.30
2023-01-08T16:17:56.237Z,3.85
2023-01-08T16:20:23.568Z,4.00
2023-01-08T16:22:50.976Z,4.40
2023-01-08T16:25:18.213Z,4.43
2023-01-08T16:27:45.524Z,4.50
2023-01-08T16:30:15.385Z,3.97
2023-01-08T16:32:43.144Z,3.03
2023-01-08T16:35:11.565Z,2.90
2023-01-08T16:37:39.929Z,5.15
2023-01-08T16:40:07.593Z,23.42
2023-01-08T16:42:34.838Z,12.77
2023-01-08T16:45:02.179Z,3.55
2023-01-08T16:47:29.564Z,2.90
2023-01-08T16:49:56.794Z,2.80
2023-01-08T16:52:23.972Z,2.50
2023-01-08T16:54:51.436Z,1.92
2023-01-08T16:57:18.693Z,2.65
2023-01-08T16:59:45.922Z,2.42
2023-01-08T17:02:13.076Z,2.08
2023-01-08T17:04:40.287Z,2.85
2023-01-08T17:07:07.590Z,2.92
2023-01-08T17:09:34.818Z,3.15
2023-01-08T17:12:02.015Z,3.22
2023-01-08T17:14:29.241Z,3.83
2023-01-08T17:16:56.498Z,4.55
2023-01-08T17:19:23.744Z,3.00
2023-01-08T17:21:51.286Z,3.20
2023-01-08T17:24:18.442Z,3.72
2023-01-08T17:26:45.856Z,3.40
2023-01-08T17:29:13.073Z,3.17
2023-01-08T17:31:40.558Z,3.30
2023-01-08T17:34:08.965Z,3.25
2023-01-08T17:36:36.298Z,3.40
2023-01-08T17:39:04.126Z,4.00
2023-01-08T17:41:49.982Z,4.32
2023-01-08T17:44:17.204Z,4.85
2023-01-08T17:46:45.421Z,7.20
2023-01-08T17:49:13.742Z,10.30
2023-01-08T17:51:42.020Z,11.73
2023-01-08T17:54:17.105Z,10.45
2023-01-08T17:56:44.355Z,7.88
2023-01-08T17:59:16.136Z,8.05
2023-01-08T18:01:44.960Z,7.97
2023-01-08T18:04:12.741Z,7.28
2023-01-08T18:06:40.163Z,6.38
2023-01-08T18:09:07.438Z,7.60
2023-01-08T18:11:34.720Z,6.75
2023-01-08T18:14:03.093Z,5.45
2023-01-08T18:16:31.314Z,6.05
2023-01-08T18:18:59.197Z,5.55
2023-01-08T18:21:27.100Z,5.32
2023-01-08T18:23:54.586Z,3.17
2023-01-08T18:26:22.455Z,3.63
2023-01-08T18:28:50.072Z,3.30
2023-01-08T18:31:17.383Z,3.50
2023-01-08T18:33:45.825Z,3.30
2023-01-08T18:36:13.576Z,3.45
2023-01-08T18:38:41.788Z,4.22
2023-01-08T18:41:09.815Z,4.25
2023-01-08T18:43:37.715Z,4.35
2023-01-08T18:46:06.694Z,4.15
2023-01-08T18:48:34.780Z,3.40
2023-01-08T18:51:05.435Z,3.55
2023-01-08T18:53:33.186Z,3.22
2023-01-08T18:56:00.936Z,2.83
2023-01-08T18:58:28.874Z,3.55
2023-01-08T19:00:56.205Z,3.63
2023-01-08T19:03:23.415Z,3.88
2023-01-08T19:05:51.124Z,4.30
2023-01-08T19:08:18.400Z,3.75
2023-01-08T19:10:45.584Z,3.65
2023-01-08T19:13:12.755Z,3.45
2023-01-08T19:15:40.062Z,3.63
2023-01-08T19:18:09.076Z,4.13
2023-01-08T19:20:36.384Z,4.00
2023-01-08T19:23:03.717Z,3.95
2023-01-08T19:25:30.942Z,4.40
2023-01-08T19:27:58.130Z,3.80
2023-01-08T19:30:25.631Z,3.90
2023-01-08T19:32:52.829Z,4.30
2023-01-08T19:35:19.985Z,4.20
2023-01-08T19:37:47.248Z,6.75
2023-01-08T19:40:14.533Z,4.85
2023-01-08T19:43:00.520Z,5.28
2023-01-08T19:45:27.857Z,6.03
2023-01-08T19:47:56.296Z,4.80
2023-01-08T19:50:24.101Z,5.10
2023-01-08T19:52:52.966Z,3.45
2023-01-08T19:55:22.232Z,4.45
2023-01-08T19:57:50.012Z,4.70
2023-01-08T20:00:19.258Z,3.80
2023-01-08T20:02:46.405Z,4.03
2023-01-08T20:05:13.588Z,3.67
2023-01-08T20:07:40.876Z,3.95
2023-01-08T20:10:08.372Z,3.92
2023-01-08T20:12:35.564Z,3.60
2023-01-08T20:15:02.863Z,3.50
2023-01-08T20:17:30.133Z,2.78
2023-01-08T20:19:57.366Z,2.53
2023-01-08T20:22:25.290Z,2.95
2023-01-08T20:24:53.503Z,2.88
2023-01-08T20:27:20.893Z,2.70
2023-01-08T20:29:48.093Z,2.72
2023-01-08T20:32:15.225Z,3.20
2023-01-08T20:34:42.431Z,3.30
2023-01-08T20:37:09.677Z,3.50
2023-01-08T20:39:36.939Z,3.80
2023-01-08T20:42:05.038Z,4.18
2023-01-08T20:44:33.153Z,4.53
2023-01-08T20:47:00.877Z,4.95
2023-01-08T20:49:29.677Z,5.07
2023-01-08T20:51:59.485Z,4.55
2023-01-08T20:54:27.570Z,4.88
2023-01-08T20:56:58.520Z,5.82
2023-01-08T20:59:26.455Z,5.82
2023-01-08T21:01:54.044Z,5.25
2023-01-08T21:04:21.436Z,3.85
2023-01-08T21:06:48.643Z,3.60
2023-01-08T21:09:18.104Z,3.45
2023-01-08T21:11:45.346Z,4.03
2023-01-08T21:14:12.583Z,3.72
2023-01-08T21:16:40.850Z,4.10
2023-01-08T21:19:10.281Z,3.00
2023-01-08T21:21:40.322Z,2.97
2023-01-08T21:24:09.236Z,2.88
2023-01-08T21:26:37.584Z,2.60
2023-01-08T21:29:06.403Z,3.15
2023-01-08T21:31:34.265Z,3.33
2023-01-08T21:34:02.331Z,3.20
2023-01-08T21:36:31.498Z,3.63
2023-01-08T21:38:59.756Z,3.55
2023-01-08T21:41:46.306Z,3.70
2023-01-08T21:44:36.446Z,3.72
2023-01-08T21:47:04.488Z,4.53
2023-01-08T21:49:31.880Z,5.72
2023-01-08T21:52:17.789Z,4.97
2023-01-08T21:54:44.958Z,4.97
2023-01-08T21:57:12.138Z,5.63
2023-01-08T21:59:39.417Z,5.25
2023-01-08T22:02:06.810Z,5.93
2023-01-08T22:04:34.204Z,5.93
2023-01-08T22:07:01.373Z,6.40
2023-01-08T22:09:28.549Z,6.90
2023-01-08T22:11:56.192Z,7.03
2023-01-08T22:14:23.453Z,7.05
2023-01-08T22:16:50.658Z,7.55
2023-01-08T22:19:18.154Z,7.20
2023-01-08T22:21:45.748Z,7.03
2023-01-08T22:24:13.202Z,7.85
2023-01-08T22:26:40.324Z,8.73
2023-01-08T22:29:07.512Z,8.23
2023-01-08T22:31:35.140Z,8.98
2023-01-08T22:34:02.356Z,9.20
2023-01-08T22:36:29.546Z,9.20
2023-01-08T22:38:56.973Z,10.45
2023-01-08T22:41:24.908Z,11.20
2023-01-08T22:43:56.609Z,11.27
2023-01-08T22:46:24.474Z,11.23
2023-01-08T22:48:51.676Z,10.68
2023-01-08T22:51:27.540Z,12.82
2023-01-08T22:53:55.272Z,11.63
2023-01-08T22:56:22.770Z,13.35
2023-01-08T22:58:49.987Z,14.75
2023-01-08T23:01:24.615Z,15.05
2023-01-08T23:03:52.980Z,14.93
2023-01-08T23:06:21.371Z,10.90
2023-01-08T23:08:48.528Z,12.23
2023-01-08T23:11:17.253Z,13.23
2023-01-08T23:13:44.518Z,13.45
2023-01-08T23:16:12.788Z,12.05
2023-01-08T23:18:40.682Z,12.85
2023-01-08T23:21:10.079Z,11.80
2023-01-08T23:23:37.537Z,12.00
2023-01-08T23:26:05.797Z,10.68
2023-01-08T23:28:32.954Z,11.57
2023-01-08T23:31:00.344Z,5.60
2023-01-08T23:33:27.470Z,9.85
2023-01-08T23:35:54.668Z,10.52
2023-01-08T23:38:21.828Z,10.23
2023-01-08T23:40:48.969Z,8.35
2023-01-08T23:43:16.302Z,9.68
2023-01-08T23:45:43.522Z,10.75
2023-01-08T23:48:10.884Z,10.40
2023-01-08T23:50:38.063Z,10.45
2023-01-08T23:53:05.796Z,11.02
2023-01-08T23:55:33.102Z,11.00
2023-01-08T23:58:00.252Z,10.52
